sensor_id;sensor_type;location;lat;lon;timestamp;pressure;altitude;pressure_sealevel;temperature;humidity
76973;BME280;65907;53.640;10.050;2023-07-24T00:02:22;99868.53;;;26.08;40.12
76973;BME280;65907;53.640;10.050;2023-07-24T00:04:47;99864.47;;;26.20;39.90
76973;BME280;65907;53.640;10.050;2023-07-24T00:07:12;99856.97;;;26.09;40.21
76973;BME280;65907;53.640;10.050;2023-07-24T00:09:38;99858.06;;;26.14;39.98
76973;BME280;65907;53.640;10.050;2023-07-24T00:12:03;99851.81;;;26.15;40.02
76973;BME280;65907;53.640;10.050;2023-07-24T00:14:28;99849.28;;;26.07;39.92
76973;BME280;65907;53.640;10.050;2023-07-24T00:16:54;99853.72;;;26.06;40.14
76973;BME280;65907;53.640;10.050;2023-07-24T00:19:19;99850.53;;;26.11;40.11
76973;BME280;65907;53.640;10.050;2023-07-24T00:21:44;99848.28;;;26.08;40.00
76973;BME280;65907;53.640;10.050;2023-07-24T00:24:09;99845.66;;;26.08;40.12
76973;BME280;65907;53.640;10.050;2023-07-24T00:26:37;99843.56;;;26.03;40.36
76973;BME280;65907;53.640;10.050;2023-07-24T00:29:02;99851.72;;;26.09;40.13
76973;BME280;65907;53.640;10.050;2023-07-24T00:31:27;99832.63;;;26.22;39.63
76973;BME280;65907;53.640;10.050;2023-07-24T00:33:53;99846.28;;;26.10;40.17
76973;BME280;65907;53.640;10.050;2023-07-24T00:36:18;99845.44;;;26.10;40.14
76973;BME280;65907;53.640;10.050;2023-07-24T00:38:43;99841.38;;;26.07;40.33
76973;BME280;65907;53.640;10.050;2023-07-24T00:41:08;99838.75;;;26.07;40.04
76973;BME280;65907;53.640;10.050;2023-07-24T00:43:33;99844.28;;;26.12;40.11
76973;BME280;65907;53.640;10.050;2023-07-24T00:45:59;99846.06;;;26.12;40.14
76973;BME280;65907;53.640;10.050;2023-07-24T00:48:24;99850.16;;;26.14;39.98
76973;BME280;65907;53.640;10.050;2023-07-24T00:50:49;99843.25;;;26.13;40.02
76973;BME280;65907;53.640;10.050;2023-07-24T00:53:15;99846.28;;;26.10;39.91
76973;BME280;65907;53.640;10.050;2023-07-24T00:55:41;99845.28;;;26.11;40.23
76973;BME280;65907;53.640;10.050;2023-07-24T00:58:07;99846.28;;;26.10;40.21
76973;BME280;65907;53.640;10.050;2023-07-24T01:00:32;99851.19;;;25.98;40.62
76973;BME280;65907;53.640;10.050;2023-07-24T01:02:58;99846.34;;;26.02;40.63
76973;BME280;65907;53.640;10.050;2023-07-24T01:05:24;99844.97;;;26.06;40.47
76973;BME280;65907;53.640;10.050;2023-07-24T01:07:50;99842.53;;;26.04;40.41
76973;BME280;65907;53.640;10.050;2023-07-24T01:10:15;99837.66;;;26.16;40.14
76973;BME280;65907;53.640;10.050;2023-07-24T01:15:10;99829.22;;;26.21;40.10
76973;BME280;65907;53.640;10.050;2023-07-24T01:17:44;99829.00;;;26.23;40.06
76973;BME280;65907;53.640;10.050;2023-07-24T01:20:13;99829.09;;;26.14;40.14
76973;BME280;65907;53.640;10.050;2023-07-24T01:22:40;99835.72;;;26.10;40.08
76973;BME280;65907;53.640;10.050;2023-07-24T01:25:31;99838.00;;;26.13;39.71
76973;BME280;65907;53.640;10.050;2023-07-24T01:27:57;99836.66;;;26.02;40.47
76973;BME280;65907;53.640;10.050;2023-07-24T01:30:22;99831.81;;;26.06;40.50
76973;BME280;65907;53.640;10.050;2023-07-24T01:32:47;99835.09;;;26.08;40.43
76973;BME280;65907;53.640;10.050;2023-07-24T01:35:15;99831.00;;;26.05;40.33
76973;BME280;65907;53.640;10.050;2023-07-24T01:37:41;99833.28;;;26.09;40.35
76973;BME280;65907;53.640;10.050;2023-07-24T01:40:07;99832.19;;;26.03;40.55
76973;BME280;65907;53.640;10.050;2023-07-24T01:42:33;99822.28;;;26.05;40.48
76973;BME280;65907;53.640;10.050;2023-07-24T01:44:59;99818.09;;;26.11;40.29
76973;BME280;65907;53.640;10.050;2023-07-24T01:47:24;99827.47;;;26.13;40.36
76973;BME280;65907;53.640;10.050;2023-07-24T01:49:50;99827.75;;;26.03;40.35
76973;BME280;65907;53.640;10.050;2023-07-24T01:52:15;99825.28;;;26.02;40.33
76973;BME280;65907;53.640;10.050;2023-07-24T01:54:40;99814.38;;;26.05;40.52
76973;BME280;65907;53.640;10.050;2023-07-24T01:57:06;99816.84;;;26.06;40.27
76973;BME280;65907;53.640;10.050;2023-07-24T01:59:31;99808.38;;;26.11;40.39
76973;BME280;65907;53.640;10.050;2023-07-24T02:01:56;99815.28;;;26.12;40.16
76973;BME280;65907;53.640;10.050;2023-07-24T02:04:21;99815.41;;;26.19;40.24
76973;BME280;65907;53.640;10.050;2023-07-24T02:06:50;99820.09;;;26.09;40.53
76973;BME280;65907;53.640;10.050;2023-07-24T02:09:17;99807.13;;;26.07;40.35
76973;BME280;65907;53.640;10.050;2023-07-24T02:11:42;99821.09;;;26.08;40.39
76973;BME280;65907;53.640;10.050;2023-07-24T02:14:07;99804.75;;;26.12;40.36
76973;BME280;65907;53.640;10.050;2023-07-24T02:16:32;99805.47;;;26.06;40.16
76973;BME280;65907;53.640;10.050;2023-07-24T02:18:58;99811.75;;;26.05;40.50
76973;BME280;65907;53.640;10.050;2023-07-24T02:21:23;99802.84;;;26.06;40.30
76973;BME280;65907;53.640;10.050;2023-07-24T02:23:50;99804.75;;;26.12;40.17
76973;BME280;65907;53.640;10.050;2023-07-24T02:26:15;99802.13;;;26.12;40.09
76973;BME280;65907;53.640;10.050;2023-07-24T02:28:41;99799.66;;;26.11;40.40
76973;BME280;65907;53.640;10.050;2023-07-24T02:31:06;99803.84;;;26.05;40.37
76973;BME280;65907;53.640;10.050;2023-07-24T02:33:31;99788.78;;;25.99;40.67
76973;BME280;65907;53.640;10.050;2023-07-24T02:35:56;99800.84;;;26.08;40.41
76973;BME280;65907;53.640;10.050;2023-07-24T02:38:21;99804.13;;;26.10;40.19
76973;BME280;65907;53.640;10.050;2023-07-24T02:40:47;99804.38;;;26.15;40.15
76973;BME280;65907;53.640;10.050;2023-07-24T02:43:14;99805.66;;;26.04;40.63
76973;BME280;65907;53.640;10.050;2023-07-24T02:45:40;99803.50;;;26.08;40.49
76973;BME280;65907;53.640;10.050;2023-07-24T02:48:06;99808.09;;;26.06;40.50
76973;BME280;65907;53.640;10.050;2023-07-24T02:50:32;99808.38;;;26.11;40.51
76973;BME280;65907;53.640;10.050;2023-07-24T02:52:57;99805.03;;;26.02;40.61
76973;BME280;65907;53.640;10.050;2023-07-24T02:55:22;99808.41;;;25.96;40.63
76973;BME280;65907;53.640;10.050;2023-07-24T02:57:50;99803.66;;;26.06;40.47
76973;BME280;65907;53.640;10.050;2023-07-24T03:00:15;99801.94;;;25.99;40.71
76973;BME280;65907;53.640;10.050;2023-07-24T03:02:41;99807.13;;;25.92;40.75
76973;BME280;65907;53.640;10.050;2023-07-24T03:05:06;99796.31;;;26.02;40.61
76973;BME280;65907;53.640;10.050;2023-07-24T03:07:35;99795.75;;;26.06;40.45
76973;BME280;65907;53.640;10.050;2023-07-24T03:10:00;99799.03;;;26.09;40.28
76973;BME280;65907;53.640;10.050;2023-07-24T03:12:25;99797.13;;;26.02;40.51
76973;BME280;65907;53.640;10.050;2023-07-24T03:14:50;99793.88;;;26.00;40.62
76973;BME280;65907;53.640;10.050;2023-07-24T03:17:16;99801.78;;;26.00;40.54
76973;BME280;65907;53.640;10.050;2023-07-24T03:19:41;99793.13;;;26.06;40.39
76973;BME280;65907;53.640;10.050;2023-07-24T03:22:06;99793.88;;;26.00;40.73
76973;BME280;65907;53.640;10.050;2023-07-24T03:24:32;99804.66;;;26.05;40.67
76973;BME280;65907;53.640;10.050;2023-07-24T03:26:57;99806.56;;;26.12;40.36
76973;BME280;65907;53.640;10.050;2023-07-24T03:29:22;99808.94;;;26.06;40.56
76973;BME280;65907;53.640;10.050;2023-07-24T03:31:47;99804.50;;;26.07;40.41
76973;BME280;65907;53.640;10.050;2023-07-24T03:34:15;99792.66;;;26.03;40.49
76973;BME280;65907;53.640;10.050;2023-07-24T03:36:40;99795.94;;;26.05;40.44
76973;BME280;65907;53.640;10.050;2023-07-24T03:39:11;99790.50;;;26.06;40.53
76973;BME280;65907;53.640;10.050;2023-07-24T03:41:37;99788.84;;;26.05;40.40
76973;BME280;65907;53.640;10.050;2023-07-24T03:44:02;99790.13;;;26.10;40.35
76973;BME280;65907;53.640;10.050;2023-07-24T03:46:28;99788.69;;;26.07;40.47
76973;BME280;65907;53.640;10.050;2023-07-24T03:48:56;99777.69;;;26.03;40.68
76973;BME280;65907;53.640;10.050;2023-07-24T03:51:21;99783.50;;;25.99;40.50
76973;BME280;65907;53.640;10.050;2023-07-24T03:53:47;99785.13;;;26.00;40.64
76973;BME280;65907;53.640;10.050;2023-07-24T03:56:12;99777.16;;;26.08;40.43
76973;BME280;65907;53.640;10.050;2023-07-24T03:58:37;99773.44;;;26.02;40.53
76973;BME280;65907;53.640;10.050;2023-07-24T04:01:06;99773.84;;;26.06;40.54
76973;BME280;65907;53.640;10.050;2023-07-24T04:03:31;99770.59;;;26.04;40.68
76973;BME280;65907;53.640;10.050;2023-07-24T04:05:56;99777.56;;;26.12;40.43
76973;BME280;65907;53.640;10.050;2023-07-24T04:08:21;99777.88;;;26.02;40.57
76973;BME280;65907;53.640;10.050;2023-07-24T04:10:47;99751.81;;;26.07;40.58
76973;BME280;65907;53.640;10.050;2023-07-24T04:13:12;99749.44;;;26.12;40.25
76973;BME280;65907;53.640;10.050;2023-07-24T04:15:37;99731.34;;;26.09;40.43
76973;BME280;65907;53.640;10.050;2023-07-24T04:18:04;99738.69;;;26.14;40.41
76973;BME280;65907;53.640;10.050;2023-07-24T04:20:29;99743.25;;;26.20;40.27
76973;BME280;65907;53.640;10.050;2023-07-24T04:22:54;99750.97;;;26.06;40.51
76973;BME280;65907;53.640;10.050;2023-07-24T04:25:20;99745.53;;;26.08;40.57
76973;BME280;65907;53.640;10.050;2023-07-24T04:27:45;99746.59;;;26.14;40.47
76973;BME280;65907;53.640;10.050;2023-07-24T04:30:13;99739.31;;;26.16;40.54
76973;BME280;65907;53.640;10.050;2023-07-24T04:32:38;99731.25;;;26.17;40.56
76973;BME280;65907;53.640;10.050;2023-07-24T04:35:03;99727.97;;;26.15;40.61
76973;BME280;65907;53.640;10.050;2023-07-24T04:37:29;99729.63;;;26.16;40.60
76973;BME280;65907;53.640;10.050;2023-07-24T04:39:54;99733.91;;;26.17;40.49
76973;BME280;65907;53.640;10.050;2023-07-24T04:42:19;99727.91;;;26.09;40.83
76973;BME280;65907;53.640;10.050;2023-07-24T04:44:44;99727.00;;;26.16;40.64
76973;BME280;65907;53.640;10.050;2023-07-24T04:47:09;99728.50;;;26.26;40.38
76973;BME280;65907;53.640;10.050;2023-07-24T04:49:35;99719.16;;;26.23;40.44
76973;BME280;65907;53.640;10.050;2023-07-24T04:52:00;99723.97;;;26.19;40.57
76973;BME280;65907;53.640;10.050;2023-07-24T04:54:26;99718.59;;;26.28;40.25
76973;BME280;65907;53.640;10.050;2023-07-24T04:56:51;99716.69;;;26.87;39.15
76973;BME280;65907;53.640;10.050;2023-07-24T04:59:16;99715.78;;;27.08;38.59
76973;BME280;65907;53.640;10.050;2023-07-24T05:01:41;99696.53;;;26.57;39.78
76973;BME280;65907;53.640;10.050;2023-07-24T05:04:07;99689.81;;;27.47;38.18
76973;BME280;65907;53.640;10.050;2023-07-24T05:06:32;99685.41;;;28.50;36.02
76973;BME280;65907;53.640;10.050;2023-07-24T05:08:57;99682.22;;;27.79;37.13
76973;BME280;65907;53.640;10.050;2023-07-24T05:11:23;99678.00;;;27.36;37.95
76973;BME280;65907;53.640;10.050;2023-07-24T05:13:48;99679.94;;;27.62;37.51
76973;BME280;65907;53.640;10.050;2023-07-24T05:16:15;99688.03;;;27.12;38.34
76973;BME280;65907;53.640;10.050;2023-07-24T05:18:41;99694.59;;;26.66;39.64
76973;BME280;65907;53.640;10.050;2023-07-24T05:21:06;99678.28;;;26.56;39.66
76973;BME280;65907;53.640;10.050;2023-07-24T05:23:31;99674.69;;;26.63;39.53
76973;BME280;65907;53.640;10.050;2023-07-24T05:25:57;99681.47;;;26.73;39.58
76973;BME280;65907;53.640;10.050;2023-07-24T05:28:22;99676.16;;;26.44;40.02
76973;BME280;65907;53.640;10.050;2023-07-24T05:30:48;99677.31;;;26.35;40.40
76973;BME280;65907;53.640;10.050;2023-07-24T05:33:13;99690.91;;;26.39;40.33
76973;BME280;65907;53.640;10.050;2023-07-24T05:35:38;99695.69;;;26.28;40.50
76973;BME280;65907;53.640;10.050;2023-07-24T05:38:03;99688.88;;;26.34;40.30
76973;BME280;65907;53.640;10.050;2023-07-24T05:40:31;99685.28;;;26.20;40.90
76973;BME280;65907;53.640;10.050;2023-07-24T05:42:56;99698.81;;;26.17;40.69
76973;BME280;65907;53.640;10.050;2023-07-24T05:45:22;99683.84;;;26.17;40.80
76973;BME280;65907;53.640;10.050;2023-07-24T05:47:47;99666.06;;;26.04;41.09
76973;BME280;65907;53.640;10.050;2023-07-24T05:50:16;99655.97;;;26.08;40.84
76973;BME280;65907;53.640;10.050;2023-07-24T05:52:43;99674.66;;;26.13;40.92
76973;BME280;65907;53.640;10.050;2023-07-24T05:55:09;99688.28;;;26.17;40.92
76973;BME280;65907;53.640;10.050;2023-07-24T05:57:34;99691.75;;;26.17;40.98
76973;BME280;65907;53.640;10.050;2023-07-24T05:59:59;99689.25;;;26.16;41.10
76973;BME280;65907;53.640;10.050;2023-07-24T06:02:24;99679.69;;;26.08;41.12
76973;BME280;65907;53.640;10.050;2023-07-24T06:04:50;99675.44;;;26.14;40.89
76973;BME280;65907;53.640;10.050;2023-07-24T06:07:15;99674.66;;;26.13;40.90
76973;BME280;65907;53.640;10.050;2023-07-24T06:09:41;99660.38;;;26.23;40.78
76973;BME280;65907;53.640;10.050;2023-07-24T06:12:10;99662.59;;;26.19;40.71
76973;BME280;65907;53.640;10.050;2023-07-24T06:14:41;99657.50;;;26.17;40.82
76973;BME280;65907;53.640;10.050;2023-07-24T06:17:06;99653.69;;;26.20;41.05
76973;BME280;65907;53.640;10.050;2023-07-24T06:19:34;99649.41;;;26.19;40.81
76973;BME280;65907;53.640;10.050;2023-07-24T06:21:59;99633.00;;;26.24;40.88
76973;BME280;65907;53.640;10.050;2023-07-24T06:24:24;99636.66;;;26.23;40.90
76973;BME280;65907;53.640;10.050;2023-07-24T06:26:50;99623.25;;;26.17;40.83
76973;BME280;65907;53.640;10.050;2023-07-24T06:29:15;99621.41;;;26.18;40.89
76973;BME280;65907;53.640;10.050;2023-07-24T06:31:43;99613.50;;;26.18;40.53
76973;BME280;65907;53.640;10.050;2023-07-24T06:34:08;99608.97;;;26.12;40.90
76973;BME280;65907;53.640;10.050;2023-07-24T06:36:33;99608.44;;;26.16;40.88
76973;BME280;65907;53.640;10.050;2023-07-24T06:38:58;99605.81;;;26.16;40.82
76973;BME280;65907;53.640;10.050;2023-07-24T06:41:23;99620.72;;;26.09;41.00
76973;BME280;65907;53.640;10.050;2023-07-24T06:43:52;99628.13;;;26.20;40.91
76973;BME280;65907;53.640;10.050;2023-07-24T06:46:17;99621.97;;;26.13;41.07
76973;BME280;65907;53.640;10.050;2023-07-24T06:48:42;99623.88;;;26.19;41.03
76973;BME280;65907;53.640;10.050;2023-07-24T06:51:10;99629.50;;;26.16;40.97
76973;BME280;65907;53.640;10.050;2023-07-24T06:53:36;99630.13;;;26.18;41.09
76973;BME280;65907;53.640;10.050;2023-07-24T06:56:01;99624.78;;;26.12;41.08
76973;BME280;65907;53.640;10.050;2023-07-24T06:58:26;99627.22;;;26.13;41.12
76973;BME280;65907;53.640;10.050;2023-07-24T07:00:52;99625.16;;;26.09;41.03
76973;BME280;65907;53.640;10.050;2023-07-24T07:03:18;99631.66;;;26.13;41.21
76973;BME280;65907;53.640;10.050;2023-07-24T07:05:43;99627.41;;;26.12;41.23
76973;BME280;65907;53.640;10.050;2023-07-24T07:08:08;99627.63;;;26.10;41.11
76973;BME280;65907;53.640;10.050;2023-07-24T07:10:33;99625.59;;;26.12;41.05
76973;BME280;65907;53.640;10.050;2023-07-24T07:13:17;99633.31;;;26.14;41.15
76973;BME280;65907;53.640;10.050;2023-07-24T07:15:42;99631.50;;;26.14;40.99
76973;BME280;65907;53.640;10.050;2023-07-24T07:18:07;99631.16;;;26.17;41.17
76973;BME280;65907;53.640;10.050;2023-07-24T07:23:36;99646.06;;;26.10;41.26
76973;BME280;65907;53.640;10.050;2023-07-24T07:26:02;99653.97;;;26.10;41.28
76973;BME280;65907;53.640;10.050;2023-07-24T07:28:27;99666.50;;;26.08;41.18
76973;BME280;65907;53.640;10.050;2023-07-24T07:30:53;99673.66;;;26.14;41.07
76973;BME280;65907;53.640;10.050;2023-07-24T07:33:18;99665.06;;;26.05;41.42
76973;BME280;65907;53.640;10.050;2023-07-24T07:35:46;99666.31;;;26.10;41.14
76973;BME280;65907;53.640;10.050;2023-07-24T07:38:11;99662.03;;;26.09;41.23
76973;BME280;65907;53.640;10.050;2023-07-24T07:40:43;99654.75;;;26.11;41.14
76973;BME280;65907;53.640;10.050;2023-07-24T07:43:08;99651.75;;;26.14;41.29
76973;BME280;65907;53.640;10.050;2023-07-24T07:48:52;99657.16;;;26.05;41.50
76973;BME280;65907;53.640;10.050;2023-07-24T07:51:41;99661.88;;;26.10;41.35
76973;BME280;65907;53.640;10.050;2023-07-24T07:54:06;99648.69;;;26.10;41.53
76973;BME280;65907;53.640;10.050;2023-07-24T07:56:31;99648.41;;;26.05;41.55
76973;BME280;65907;53.640;10.050;2023-07-24T07:58:57;99646.84;;;26.11;41.30
76973;BME280;65907;53.640;10.050;2023-07-24T08:01:22;99642.03;;;26.14;41.15
76973;BME280;65907;53.640;10.050;2023-07-24T08:03:47;99642.59;;;26.10;41.26
76973;BME280;65907;53.640;10.050;2023-07-24T08:06:15;99640.19;;;26.15;41.35
76973;BME280;65907;53.640;10.050;2023-07-24T08:08:42;99632.63;;;26.27;41.23
76973;BME280;65907;53.640;10.050;2023-07-24T08:11:10;99635.47;;;26.25;41.24
76973;BME280;65907;53.640;10.050;2023-07-24T08:13:35;99638.16;;;26.10;41.08
76973;BME280;65907;53.640;10.050;2023-07-24T08:16:00;99631.50;;;26.14;41.40
76973;BME280;65907;53.640;10.050;2023-07-24T08:18:28;99643.94;;;26.20;41.30
76973;BME280;65907;53.640;10.050;2023-07-24T08:20:56;99650.72;;;26.30;41.16
76973;BME280;65907;53.640;10.050;2023-07-24T08:23:21;99646.63;;;26.27;41.19
76973;BME280;65907;53.640;10.050;2023-07-24T08:25:56;99657.84;;;26.36;41.05
76973;BME280;65907;53.640;10.050;2023-07-24T08:28:21;99657.50;;;26.17;41.36
76973;BME280;65907;53.640;10.050;2023-07-24T08:30:55;99654.72;;;26.26;41.51
76973;BME280;65907;53.640;10.050;2023-07-24T08:33:20;99643.03;;;26.13;41.48
76973;BME280;65907;53.640;10.050;2023-07-24T08:35:45;99647.09;;;26.16;41.60
76973;BME280;65907;53.640;10.050;2023-07-24T08:38:13;99652.22;;;26.17;41.57
76973;BME280;65907;53.640;10.050;2023-07-24T08:43:06;99636.91;;;26.28;41.17
76973;BME280;65907;53.640;10.050;2023-07-24T08:45:32;99633.19;;;26.44;40.96
76973;BME280;65907;53.640;10.050;2023-07-24T08:47:58;99631.41;;;26.51;40.78
76973;BME280;65907;53.640;10.050;2023-07-24T08:50:26;99635.19;;;26.70;40.31
76973;BME280;65907;53.640;10.050;2023-07-24T08:52:52;99637.81;;;26.70;40.24
76973;BME280;65907;53.640;10.050;2023-07-24T08:55:37;99639.78;;;26.61;40.49
76973;BME280;65907;53.640;10.050;2023-07-24T08:58:10;99638.41;;;26.66;40.31
76973;BME280;65907;53.640;10.050;2023-07-24T09:00:36;99644.44;;;26.59;40.63
76973;BME280;65907;53.640;10.050;2023-07-24T09:03:01;99637.53;;;26.58;40.71
76973;BME280;65907;53.640;10.050;2023-07-24T09:05:26;99641.38;;;26.56;40.75
76973;BME280;65907;53.640;10.050;2023-07-24T09:11:07;99634.84;;;26.52;40.95
76973;BME280;65907;53.640;10.050;2023-07-24T09:13:32;99634.03;;;26.51;40.94
76973;BME280;65907;53.640;10.050;2023-07-24T09:15:58;99632.88;;;26.54;41.00
76973;BME280;65907;53.640;10.050;2023-07-24T09:18:41;99633.19;;;26.44;40.93
76973;BME280;65907;53.640;10.050;2023-07-24T09:21:10;99634.00;;;26.44;40.99
76973;BME280;65907;53.640;10.050;2023-07-24T09:23:37;99638.31;;;26.52;40.83
76973;BME280;65907;53.640;10.050;2023-07-24T09:26:05;99639.31;;;26.51;41.00
76973;BME280;65907;53.640;10.050;2023-07-24T09:28:30;99629.41;;;26.53;40.78
76973;BME280;65907;53.640;10.050;2023-07-24T09:30:56;99635.50;;;26.54;40.70
76973;BME280;65907;53.640;10.050;2023-07-24T09:33:22;99642.56;;;26.53;40.92
76973;BME280;65907;53.640;10.050;2023-07-24T09:36:01;99644.88;;;26.63;40.58
76973;BME280;65907;53.640;10.050;2023-07-24T09:38:26;99644.03;;;26.56;40.75
76973;BME280;65907;53.640;10.050;2023-07-24T09:40:55;99642.53;;;26.46;40.90
76973;BME280;65907;53.640;10.050;2023-07-24T09:43:21;99640.50;;;26.48;40.90
76973;BME280;65907;53.640;10.050;2023-07-24T09:45:50;99634.09;;;26.58;40.83
76973;BME280;65907;53.640;10.050;2023-07-24T09:48:19;99634.66;;;26.53;40.93
76973;BME280;65907;53.640;10.050;2023-07-24T09:50:48;99633.50;;;26.62;40.63
76973;BME280;65907;53.640;10.050;2023-07-24T09:55:58;99629.69;;;26.65;40.71
76973;BME280;65907;53.640;10.050;2023-07-24T09:58:24;99634.56;;;26.68;40.63
76973;BME280;65907;53.640;10.050;2023-07-24T10:00:50;99621.03;;;26.49;40.69
76973;BME280;65907;53.640;10.050;2023-07-24T10:05:47;99609.81;;;26.69;40.40
76973;BME280;65907;53.640;10.050;2023-07-24T10:08:14;99614.03;;;26.92;39.76
76973;BME280;65907;53.640;10.050;2023-07-24T10:10:39;99606.22;;;26.77;40.37
76973;BME280;65907;53.640;10.050;2023-07-24T10:13:05;99605.91;;;26.87;40.24
76973;BME280;65907;53.640;10.050;2023-07-24T10:15:35;99606.75;;;26.94;40.05
76973;BME280;65907;53.640;10.050;2023-07-24T10:18:04;99590.34;;;26.70;40.81
76973;BME280;65907;53.640;10.050;2023-07-24T10:20:33;99592.25;;;26.76;40.21
76973;BME280;65907;53.640;10.050;2023-07-24T10:23:03;99599.13;;;26.77;40.22
76973;BME280;65907;53.640;10.050;2023-07-24T10:25:29;99596.69;;;26.76;40.26
76973;BME280;65907;53.640;10.050;2023-07-24T10:28:00;99588.06;;;26.89;40.08
76973;BME280;65907;53.640;10.050;2023-07-24T10:30:28;99588.88;;;26.89;40.27
76973;BME280;65907;53.640;10.050;2023-07-24T10:32:53;99585.63;;;26.94;39.91
76973;BME280;65907;53.640;10.050;2023-07-24T10:35:18;99583.63;;;26.89;40.05
76973;BME280;65907;53.640;10.050;2023-07-24T10:37:46;99577.84;;;26.79;40.43
76973;BME280;65907;53.640;10.050;2023-07-24T10:40:20;99574.53;;;26.70;40.74
76973;BME280;65907;53.640;10.050;2023-07-24T10:42:58;99561.31;;;26.63;40.62
76973;BME280;65907;53.640;10.050;2023-07-24T10:45:23;99564.06;;;26.84;40.42
76973;BME280;65907;53.640;10.050;2023-07-24T10:47:48;99563.25;;;26.83;40.08
76973;BME280;65907;53.640;10.050;2023-07-24T10:50:13;99559.38;;;26.79;40.16
76973;BME280;65907;53.640;10.050;2023-07-24T10:52:39;99568.25;;;26.71;40.96
76973;BME280;65907;53.640;10.050;2023-07-24T10:55:05;99557.34;;;26.81;40.21
76973;BME280;65907;53.640;10.050;2023-07-24T10:57:31;99560.44;;;26.85;40.29
76973;BME280;65907;53.640;10.050;2023-07-24T10:59:56;99562.44;;;26.83;40.36
76973;BME280;65907;53.640;10.050;2023-07-24T11:02:22;99566.09;;;26.82;40.37
76973;BME280;65907;53.640;10.050;2023-07-24T11:04:48;99571.84;;;26.92;40.20
76973;BME280;65907;53.640;10.050;2023-07-24T11:07:14;99569.72;;;26.45;41.36
76973;BME280;65907;53.640;10.050;2023-07-24T11:09:39;99561.91;;;26.59;41.19
76973;BME280;65907;53.640;10.050;2023-07-24T11:12:17;99555.09;;;26.78;40.50
76973;BME280;65907;53.640;10.050;2023-07-24T11:14:47;99550.63;;;26.72;40.71
76973;BME280;65907;53.640;10.050;2023-07-24T11:17:12;99551.19;;;26.67;40.83
76973;BME280;65907;53.640;10.050;2023-07-24T11:19:37;99549.84;;;26.78;40.43
76973;BME280;65907;53.640;10.050;2023-07-24T11:22:03;99546.81;;;26.81;40.36
76973;BME280;65907;53.640;10.050;2023-07-24T11:24:29;99546.81;;;26.81;40.17
76973;BME280;65907;53.640;10.050;2023-07-24T11:26:56;99551.28;;;26.81;40.36
76973;BME280;65907;53.640;10.050;2023-07-24T11:29:21;99549.03;;;26.77;40.51
76973;BME280;65907;53.640;10.050;2023-07-24T11:31:52;99547.31;;;26.91;39.92
76973;BME280;65907;53.640;10.050;2023-07-24T11:34:18;99559.44;;;26.86;40.13
76973;BME280;65907;53.640;10.050;2023-07-24T11:36:43;99569.09;;;26.72;40.57
76973;BME280;65907;53.640;10.050;2023-07-24T11:39:09;99580.38;;;26.59;41.01
76973;BME280;65907;53.640;10.050;2023-07-24T11:41:34;99582.50;;;26.42;41.46
76973;BME280;65907;53.640;10.050;2023-07-24T11:43:59;99589.56;;;26.70;40.70
76973;BME280;65907;53.640;10.050;2023-07-24T11:46:25;99591.41;;;26.76;40.54
76973;BME280;65907;53.640;10.050;2023-07-24T11:48:51;99588.59;;;26.77;40.58
76973;BME280;65907;53.640;10.050;2023-07-24T11:51:21;99591.63;;;26.81;40.47
76973;BME280;65907;53.640;10.050;2023-07-24T11:53:49;99599.63;;;26.88;40.19
76973;BME280;65907;53.640;10.050;2023-07-24T11:56:15;99581.78;;;26.90;40.15
76973;BME280;65907;53.640;10.050;2023-07-24T11:58:40;99579.75;;;26.92;40.00
76973;BME280;65907;53.640;10.050;2023-07-24T12:01:06;99583.25;;;27.06;40.05
76973;BME280;65907;53.640;10.050;2023-07-24T12:03:31;99569.41;;;26.90;39.90
76973;BME280;65907;53.640;10.050;2023-07-24T12:05:56;99561.81;;;26.81;40.24
76973;BME280;65907;53.640;10.050;2023-07-24T12:08:33;99573.97;;;26.75;40.61
76973;BME280;65907;53.640;10.050;2023-07-24T12:11:01;99574.25;;;26.87;40.42
76973;BME280;65907;53.640;10.050;2023-07-24T12:13:29;99564.06;;;26.84;40.36
76973;BME280;65907;53.640;10.050;2023-07-24T12:15:54;99564.81;;;26.71;40.52
76973;BME280;65907;53.640;10.050;2023-07-24T12:18:19;99566.06;;;26.75;40.46
76973;BME280;65907;53.640;10.050;2023-07-24T12:20:44;99561.97;;;26.72;40.46
76973;BME280;65907;53.640;10.050;2023-07-24T12:23:10;99571.13;;;26.76;40.43
76973;BME280;65907;53.640;10.050;2023-07-24T12:25:35;99576.22;;;26.78;40.50
76973;BME280;65907;53.640;10.050;2023-07-24T12:28:00;99575.94;;;26.66;40.78
76973;BME280;65907;53.640;10.050;2023-07-24T12:30:25;99570.72;;;26.73;40.67
76973;BME280;65907;53.640;10.050;2023-07-24T12:32:50;99575.38;;;26.71;40.65
76973;BME280;65907;53.640;10.050;2023-07-24T12:35:16;99571.84;;;26.63;40.85
76973;BME280;65907;53.640;10.050;2023-07-24T12:37:42;99574.88;;;26.60;40.79
76973;BME280;65907;53.640;10.050;2023-07-24T12:40:08;99578.56;;;26.66;40.94
76973;BME280;65907;53.640;10.050;2023-07-24T12:42:33;99571.69;;;26.65;40.77
76973;BME280;65907;53.640;10.050;2023-07-24T12:44:58;99569.31;;;26.77;40.68
76973;BME280;65907;53.640;10.050;2023-07-24T12:47:24;99567.03;;;26.67;40.59
76973;BME280;65907;53.640;10.050;2023-07-24T12:49:49;99555.28;;;26.70;40.95
76973;BME280;65907;53.640;10.050;2023-07-24T12:52:14;99554.63;;;26.61;40.81
76973;BME280;65907;53.640;10.050;2023-07-24T12:54:39;99543.06;;;26.62;40.95
76973;BME280;65907;53.640;10.050;2023-07-24T12:57:07;99544.53;;;26.71;40.74
76973;BME280;65907;53.640;10.050;2023-07-24T12:59:32;99532.34;;;26.70;40.77
76973;BME280;65907;53.640;10.050;2023-07-24T13:01:57;99529.72;;;26.70;40.72
76973;BME280;65907;53.640;10.050;2023-07-24T13:04:25;99527.69;;;26.72;40.64
76973;BME280;65907;53.640;10.050;2023-07-24T13:06:51;99527.94;;;26.77;40.63